Time;durP1;ratioP1;P1;durP2;ratioP2;P2;SDS_P1;SDS_P2;PMS_P1;PMS_P2;Temp;Humidity;BMP_temperature;BMP_pressure;BME280_temperature;BME280_humidity;BME280_pressure;Samples;Min_cycle;Max_cycle;Signal;HPM_P1;HPM_P2
2022/11/24 00:01:05;;;;;;;;;;;;;;;;;;5045373;28;19916;-81
2022/11/24 00:03:37;;;;;;;;;;;;;;;;;;5067327;28;19912;-81
2022/11/24 00:06:03;;;;;;;;;;;;;;;;;;5079932;28;20467;-82
2022/11/24 00:08:29;;;;;;;;;;;;;;;;;;5050506;28;19917;-82
2022/11/24 00:10:58;;;;;;;;;;;;;;;;;;5054383;28;20372;-82
2022/11/24 00:13:24;;;;;;;;;;;;;;;;;;5062840;28;19963;-80
2022/11/24 00:15:50;;;;;;;;;;;;;;;;;;5049685;28;19955;-80
2022/11/24 00:18:16;;;;;;;;;;;;;;;;;;5039252;28;19970;-80
2022/11/24 00:20:42;;;;;;;;;;;;;;;;;;5035647;28;19960;-80
2022/11/24 00:23:09;;;;;;;;;;;;;;;;;;5049311;28;19951;-80
2022/11/24 00:25:35;;;;;;;;;;;;;;;;;;5022967;28;19959;-80
2022/11/24 00:28:01;;;;;;;;;;;;;;;;;;5045429;28;19959;-80
2022/11/24 00:30:27;;;;;;;;;;;;;;;;;;5041538;28;19978;-80
2022/11/24 00:32:54;;;;;;;;;;;;;;;;;;5049362;28;19952;-80
2022/11/24 00:35:20;;;;;;;;;;;;;;;;;;5041170;28;19959;-80
2022/11/24 00:37:46;;;;;;;;;;;;;;;;;;5048225;28;20411;-80
2022/11/24 00:40:12;;;;;;;;;;;;;;;;;;5046127;28;19956;-80
2022/11/24 00:42:38;;;;;;;;;;;;;;;;;;5034647;28;19952;-80
2022/11/24 00:45:05;;;;;;;;;;;;;;;;;;5047715;28;20388;-80
2022/11/24 00:47:31;;;;;;;;;;;;;;;;;;5046505;28;19955;-82
2022/11/24 00:49:57;;;;;;;;;;;;;;;;;;5042759;28;20317;-80
2022/11/24 00:52:24;;;;;;;;;;;;;;;;;;5056924;28;19963;-79
2022/11/24 00:54:50;;;;;;;;;;;;;;;;;;5048336;28;20396;-80
2022/11/24 00:57:16;;;;;;;;;;;;;;;;;;5049437;28;19952;-80
2022/11/24 00:59:42;;;;;;;;;;;;;;;;;;5044426;28;19957;-80
2022/11/24 01:02:08;;;;;;;;;;;;;;;;;;5062855;28;19909;-81
2022/11/24 01:04:35;;;;;;;;;;;;;;;;;;5049927;28;19956;-81
2022/11/24 01:07:01;;;;;;;;;;;;;;;;;;5053398;28;19940;-81
2022/11/24 01:09:27;;;;;;;;;;;;;;;;;;5044637;28;19948;-82
2022/11/24 01:12:03;;;;;;;;;;;;;;;;;;5034952;28;20063;-82
2022/11/24 01:14:29;;;;;;;;;;;;;;;;;;5044085;28;19955;-81
2022/11/24 01:16:55;;;;;;;;;;;;;;;;;;5037070;28;19993;-81
2022/11/24 01:19:21;;;;;;;;;;;;;;;;;;5070746;28;20038;-81
2022/11/24 01:21:47;;;;;;;;;;;;;;;;;;5055575;28;19960;-81
2022/11/24 01:24:14;;;;;;;;;;;;;;;;;;5062127;28;20383;-80
2022/11/24 01:26:40;;;;;;;;;;;;;;;;;;5058665;28;20367;-80
2022/11/24 01:29:06;;;;;;;;;;;;;;;;;;5070313;28;19920;-81
2022/11/24 01:31:32;;;;;;;;;;;;;;;;;;5052694;28;20381;-81
2022/11/24 01:33:58;;;;;;;;;;;;;;;;;;5035561;28;19966;-83
2022/11/24 01:36:25;;;;;;;;;;;;;;;;;;5067400;28;20433;-81
2022/11/24 01:38:51;;;;;;;;;;;;;;;;;;5063846;28;19971;-81
2022/11/24 01:41:17;;;;;;;;;;;;;;;;;;5049391;28;19954;-81
2022/11/24 01:43:43;;;;;;;;;;;;;;;;;;5049039;28;19940;-80
2022/11/24 01:46:09;;;;;;;;;;;;;;;;;;5058591;28;19963;-82
2022/11/24 01:48:35;;;;;;;;;;;;;;;;;;5062810;28;19959;-83
2022/11/24 01:51:02;;;;;;;;;;;;;;;;;;5061952;28;19951;-82
2022/11/24 01:53:28;;;;;;;;;;;;;;;;;;5062648;28;20385;-83
2022/11/24 01:55:54;;;;;;;;;;;;;;;;;;5048557;28;19955;-82
2022/11/24 01:58:20;;;;;;;;;;;;;;;;;;5071623;28;19971;-81
2022/11/24 02:00:46;;;;;;;;;;;;;;;;;;5067552;28;19952;-83
2022/11/24 02:03:12;;;;;;;;;;;;;;;;;;5064518;28;20348;-82
2022/11/24 02:05:39;;;;;;;;;;;;;;;;;;5048389;28;20341;-82
2022/11/24 02:08:05;;;;;;;;;;;;;;;;;;5078613;28;19962;-82
2022/11/24 02:10:31;;;;;;;;;;;;;;;;;;5050853;28;19944;-83
2022/11/24 02:12:57;;;;;;;;;;;;;;;;;;5068286;28;19942;-83
2022/11/24 02:15:23;;;;;;;;;;;;;;;;;;5049911;28;19963;-84
2022/11/24 02:17:50;;;;;;;;;;;;;;;;;;5068285;28;19972;-83
2022/11/24 02:20:16;;;;;;;;;;;;;;;;;;5035174;28;20380;-83
2022/11/24 02:22:42;;;;;;;;;;;;;;;;;;5066596;28;19966;-83
2022/11/24 02:25:08;;;;;;;;;;;;;;;;;;5068342;28;20348;-83
2022/11/24 02:27:34;;;;;;;;;;;;;;;;;;5068924;28;20451;-83
2022/11/24 02:30:00;;;;;;;;;;;;;;;;;;5062886;28;19959;-83
2022/11/24 02:32:27;;;;;;;;;;;;;;;;;;5051711;28;19939;-80
2022/11/24 02:34:53;;;;;;;;;;;;;;;;;;5074881;28;19951;-81
2022/11/24 02:37:19;;;;;;;;;;;;;;;;;;5061957;28;20368;-80
2022/11/24 02:39:45;;;;;;;;;;;;;;;;;;5054792;28;19944;-80
2022/11/24 02:42:11;;;;;;;;;;;;;;;;;;5054784;28;19951;-81
2022/11/24 02:44:38;;;;;;;;;;;;;;;;;;5048423;28;19971;-81
2022/11/24 02:47:04;;;;;;;;;;;;;;;;;;5055404;28;19959;-82
2022/11/24 02:49:30;;;;;;;;;;;;;;;;;;5056134;28;20361;-81
2022/11/24 02:51:56;;;;;;;;;;;;;;;;;;5034141;28;19951;-82
2022/11/24 02:54:22;;;;;;;;;;;;;;;;;;5048680;28;19944;-82
2022/11/24 02:56:48;;;;;;;;;;;;;;;;;;5066803;28;19963;-82
2022/11/24 02:59:15;;;;;;;;;;;;;;;;;;5072473;28;19967;-82
2022/11/24 03:01:41;;;;;;;;;;;;;;;;;;5044429;28;19960;-82
2022/11/24 03:04:07;;;;;;;;;;;;;;;;;;5064864;28;19947;-82
2022/11/24 03:06:33;;;;;;;;;;;;;;;;;;5037455;28;20337;-82
2022/11/24 03:08:59;;;;;;;;;;;;;;;;;;5065267;28;20018;-82
2022/11/24 03:11:26;;;;;;;;;;;;;;;;;;5069381;28;19947;-81
2022/11/24 03:13:52;;;;;;;;;;;;;;;;;;5080254;28;19955;-81
2022/11/24 03:16:18;;;;;;;;;;;;;;;;;;5053959;28;19970;-81
2022/11/24 03:18:46;;;;;;;;;;;;;;;;;;5062544;28;19963;-81
2022/11/24 03:21:13;;;;;;;;;;;;;;;;;;5053643;28;20021;-81
2022/11/24 03:23:39;;;;;;;;;;;;;;;;;;5063267;28;19948;-81
2022/11/24 03:26:05;;;;;;;;;;;;;;;;;;5063957;28;19958;-81
2022/11/24 03:28:31;;;;;;;;;;;;;;;;;;5065708;28;19952;-82
2022/11/24 03:30:57;;;;;;;;;;;;;;;;;;5056917;28;19960;-82
2022/11/24 03:33:24;;;;;;;;;;;;;;;;;;5054063;28;20384;-82
2022/11/24 03:35:50;;;;;;;;;;;;;;;;;;5049621;28;19959;-81
2022/11/24 03:38:16;;;;;;;;;;;;;;;;;;5059890;28;19956;-81
2022/11/24 03:40:42;;;;;;;;;;;;;;;;;;5048182;28;19948;-80
2022/11/24 03:43:08;;;;;;;;;;;;;;;;;;5068277;28;19962;-81
2022/11/24 03:45:35;;;;;;;;;;;;;;;;;;5027654;28;19990;-81
2022/11/24 03:48:01;;;;;;;;;;;;;;;;;;5040838;28;19959;-82
2022/11/24 03:50:27;;;;;;;;;;;;;;;;;;5030709;28;20436;-82
2022/11/24 03:52:53;;;;;;;;;;;;;;;;;;5050667;28;19932;-81
2022/11/24 03:55:19;;;;;;;;;;;;;;;;;;5043824;28;20379;-82
2022/11/24 03:57:45;;;;;;;;;;;;;;;;;;5066194;28;19963;-81
2022/11/24 04:00:12;;;;;;;;;;;;;;;;;;5062014;28;19963;-81
2022/11/24 04:02:38;;;;;;;;;;;;;;;;;;5064144;28;19944;-81
2022/11/24 04:05:04;;;;;;;;;;;;;;;;;;5070927;28;19917;-81
2022/11/24 04:07:30;;;;;;;;;;;;;;;;;;5071209;28;20292;-81
2022/11/24 04:09:57;;;;;;;;;;;;;;;;;;5070491;28;19944;-81
2022/11/24 04:15:07;;;;;;;;;;;;;;;;;;5059973;28;20375;-81
2022/11/24 04:17:34;;;;;;;;;;;;;;;;;;5068610;28;19956;-82
2022/11/24 04:20:00;;;;;;;;;;;;;;;;;;5069534;28;19959;-81
2022/11/24 04:22:26;;;;;;;;;;;;;;;;;;5052590;28;19963;-81
2022/11/24 04:24:52;;;;;;;;;;;;;;;;;;5050395;28;20406;-81
2022/11/24 04:27:18;;;;;;;;;;;;;;;;;;5036332;28;19998;-82
2022/11/24 04:29:44;;;;;;;;;;;;;;;;;;5073537;28;19956;-81
2022/11/24 04:32:11;;;;;;;;;;;;;;;;;;5070613;28;19948;-79
2022/11/24 04:34:37;;;;;;;;;;;;;;;;;;5062384;28;19917;-78
2022/11/24 04:37:03;;;;;;;;;;;;;;;;;;5054780;28;20373;-77
2022/11/24 04:39:29;;;;;;;;;;;;;;;;;;5058016;28;19983;-77
2022/11/24 04:41:55;;;;;;;;;;;;;;;;;;5055612;28;19948;-78
2022/11/24 04:44:21;;;;;;;;;;;;;;;;;;5076502;28;19913;-78
2022/11/24 04:46:48;;;;;;;;;;;;;;;;;;5056913;28;19947;-78
2022/11/24 04:49:14;;;;;;;;;;;;;;;;;;5076976;28;19958;-77
2022/11/24 04:51:40;;;;;;;;;;;;;;;;;;5072587;28;19948;-77
2022/11/24 04:54:06;;;;;;;;;;;;;;;;;;5054550;28;20348;-77
2022/11/24 04:56:33;;;;;;;;;;;;;;;;;;5053473;28;20388;-78
2022/11/24 04:58:59;;;;;;;;;;;;;;;;;;5058833;28;19968;-78
2022/11/24 05:01:25;;;;;;;;;;;;;;;;;;5064300;28;19951;-78
2022/11/24 05:03:51;;;;;;;;;;;;;;;;;;5055877;28;19974;-78
2022/11/24 05:06:17;;;;;;;;;;;;;;;;;;5058085;28;19953;-78
2022/11/24 05:08:43;;;;;;;;;;;;;;;;;;5074867;28;20486;-78
2022/11/24 05:11:10;;;;;;;;;;;;;;;;;;5050689;28;19952;-78
2022/11/24 05:13:36;;;;;;;;;;;;;;;;;;5054222;28;19960;-79
2022/11/24 05:16:02;;;;;;;;;;;;;;;;;;5066909;28;19951;-77
2022/11/24 05:18:28;;;;;;;;;;;;;;;;;;5043408;28;20403;-77
2022/11/24 05:20:55;;;;;;;;;;;;;;;;;;5073236;28;19947;-78
2022/11/24 05:23:21;;;;;;;;;;;;;;;;;;5059208;28;19979;-77
2022/11/24 05:25:47;;;;;;;;;;;;;;;;;;5060440;28;20277;-78
2022/11/24 05:28:13;;;;;;;;;;;;;;;;;;5052104;28;19916;-78
2022/11/24 05:30:40;;;;;;;;;;;;;;;;;;5085565;28;19947;-77
2022/11/24 05:33:06;;;;;;;;;;;;;;;;;;5088996;28;19990;-77
2022/11/24 05:35:32;;;;;;;;;;;;;;;;;;5072604;28;19963;-76
2022/11/24 05:37:58;;;;;;;;;;;;;;;;;;5054876;28;19960;-77
2022/11/24 05:40:24;;;;;;;;;;;;;;;;;;5066927;28;19955;-76
2022/11/24 05:42:51;;;;;;;;;;;;;;;;;;5047900;28;19952;-77
2022/11/24 05:45:17;;;;;;;;;;;;;;;;;;5065934;28;19944;-76
2022/11/24 05:47:43;;;;;;;;;;;;;;;;;;5080690;28;20373;-78
2022/11/24 05:50:09;;;;;;;;;;;;;;;;;;5050037;28;19947;-78
2022/11/24 05:52:35;;;;;;;;;;;;;;;;;;5047732;28;19970;-77
2022/11/24 05:55:05;;;;;;;;;;;;;;;;;;5062592;28;19944;-77
2022/11/24 05:57:31;;;;;;;;;;;;;;;;;;5059339;28;19916;-77
2022/11/24 06:00:00;;;;;;;;;;;;;;;;;;5061105;28;19935;-77
2022/11/24 06:02:26;;;;;;;;;;;;;;;;;;5067448;28;19955;-77
2022/11/24 06:04:52;;;;;;;;;;;;;;;;;;5047258;28;19941;-77
2022/11/24 06:07:19;;;;;;;;;;;;;;;;;;5056999;28;19960;-77
2022/11/24 06:09:45;;;;;;;;;;;;;;;;;;5062648;28;19962;-77
2022/11/24 06:12:11;;;;;;;;;;;;;;;;;;5077716;28;19959;-77
2022/11/24 06:14:37;;;;;;;;;;;;;;;;;;5050611;28;19963;-77
2022/11/24 06:17:03;;;;;;;;;;;;;;;;;;5053350;28;19979;-76
2022/11/24 06:19:30;;;;;;;;;;;;;;;;;;5062703;28;20391;-77
2022/11/24 06:21:56;;;;;;;;;;;;;;;;;;5060597;28;19968;-77
2022/11/24 06:24:22;;;;;;;;;;;;;;;;;;5060335;28;20376;-81
2022/11/24 06:26:48;;;;;;;;;;;;;;;;;;5078764;28;19956;-82
2022/11/24 06:29:14;;;;;;;;;;;;;;;;;;5078146;28;19955;-82
2022/11/24 06:31:40;;;;;;;;;;;;;;;;;;5068214;28;19967;-81
2022/11/24 06:34:07;;;;;;;;;;;;;;;;;;5060037;28;20598;-82
2022/11/24 06:36:33;;;;;;;;;;;;;;;;;;5065979;28;19956;-81
2022/11/24 06:38:59;;;;;;;;;;;;;;;;;;5062369;28;20273;-81
2022/11/24 06:41:25;;;;;;;;;;;;;;;;;;5051049;28;20410;-83
2022/11/24 06:43:52;;;;;;;;;;;;;;;;;;5074927;28;20005;-83
2022/11/24 06:46:18;;;;;;;;;;;;;;;;;;5066322;28;20352;-82
2022/11/24 06:48:44;;;;;;;;;;;;;;;;;;5062854;28;19913;-83
2022/11/24 06:51:11;;;;;;;;;;;;;;;;;;5042097;28;19978;-81
2022/11/24 06:53:38;;;;;;;;;;;;;;;;;;5061719;28;19923;-81
2022/11/24 06:56:04;;;;;;;;;;;;;;;;;;5050698;28;19916;-81
2022/11/24 06:58:30;;;;;;;;;;;;;;;;;;5044725;28;20353;-81
2022/11/24 07:00:56;;;;;;;;;;;;;;;;;;5051512;28;19920;-80
2022/11/24 07:03:23;;;;;;;;;;;;;;;;;;5055717;28;19908;-80
2022/11/24 07:05:49;;;;;;;;;;;;;;;;;;5064862;28;20022;-80
2022/11/24 07:08:15;;;;;;;;;;;;;;;;;;5083470;28;19971;-81
2022/11/24 07:10:41;;;;;;;;;;;;;;;;;;5080582;28;19944;-80
2022/11/24 07:13:10;;;;;;;;;;;;;;;;;;5038226;28;19920;-81
2022/11/24 07:15:36;;;;;;;;;;;;;;;;;;5067039;28;19963;-79
2022/11/24 07:18:02;;;;;;;;;;;;;;;;;;5053464;28;20058;-81
2022/11/24 07:20:28;;;;;;;;;;;;;;;;;;5042799;28;19966;-81
2022/11/24 07:22:55;;;;;;;;;;;;;;;;;;5060808;28;19952;-81
2022/11/24 07:25:21;;;;;;;;;;;;;;;;;;5054575;28;19962;-82
2022/11/24 07:27:47;;;;;;;;;;;;;;;;;;5077134;28;20027;-82
2022/11/24 07:30:13;;;;;;;;;;;;;;;;;;5071746;28;20561;-82
2022/11/24 07:32:40;;;;;;;;;;;;;;;;;;5074140;28;19920;-81
2022/11/24 07:35:06;;;;;;;;;;;;;;;;;;5061087;28;19921;-82
2022/11/24 07:37:32;;;;;;;;;;;;;;;;;;5042828;28;19913;-81
2022/11/24 07:39:58;;;;;;;;;;;;;;;;;;5049465;28;19929;-83
2022/11/24 07:42:25;;;;;;;;;;;;;;;;;;5057792;28;19925;-84
2022/11/24 07:44:51;;;;;;;;;;;;;;;;;;5073650;28;20695;-84
2022/11/24 07:47:17;;;;;;;;;;;;;;;;;;5079981;28;20015;-83
2022/11/24 07:49:43;;;;;;;;;;;;;;;;;;5064007;28;20376;-83
2022/11/24 07:52:10;;;;;;;;;;;;;;;;;;5074421;28;20364;-83
2022/11/24 07:54:36;;;;;;;;;;;;;;;;;;5061348;28;19964;-83
2022/11/24 07:57:02;;;;;;;;;;;;;;;;;;5043650;28;19948;-84
2022/11/24 07:59:28;;;;;;;;;;;;;;;;;;5054814;28;19948;-84
2022/11/24 08:01:54;;;;;;;;;;;;;;;;;;5068450;28;20343;-83
2022/11/24 08:04:21;;;;;;;;;;;;;;;;;;5061040;28;19998;-83
2022/11/24 08:06:47;;;;;;;;;;;;;;;;;;5074268;28;19960;-83
2022/11/24 08:09:13;;;;;;;;;;;;;;;;;;5075852;28;19948;-83
2022/11/24 08:11:39;;;;;;;;;;;;;;;;;;5059724;28;19968;-82
2022/11/24 08:14:05;;;;;;;;;;;;;;;;;;5068351;28;19960;-82
2022/11/24 08:16:32;;;;;;;;;;;;;;;;;;5072804;28;19951;-83
2022/11/24 08:18:58;;;;;;;;;;;;;;;;;;5043619;28;19967;-82
2022/11/24 08:21:24;;;;;;;;;;;;;;;;;;5036086;28;20538;-83
2022/11/24 08:23:50;;;;;;;;;;;;;;;;;;5048810;28;19951;-83
2022/11/24 08:26:18;;;;;;;;;;;;;;;;;;5052185;28;20320;-83
2022/11/24 08:28:44;;;;;;;;;;;;;;;;;;5036895;28;19916;-84
2022/11/24 08:31:10;;;;;;;;;;;;;;;;;;5067609;28;20034;-83
2022/11/24 08:33:36;;;;;;;;;;;;;;;;;;5078794;28;19955;-83
2022/11/24 08:36:02;;;;;;;;;;;;;;;;;;5070898;28;19912;-83
2022/11/24 08:38:29;;;;;;;;;;;;;;;;;;5048794;28;19916;-83
2022/11/24 08:40:55;;;;;;;;;;;;;;;;;;5036127;28;20762;-83
2022/11/24 08:43:21;;;;;;;;;;;;;;;;;;5064326;28;19974;-83
2022/11/24 08:45:47;;;;;;;;;;;;;;;;;;5065146;28;20391;-83
2022/11/24 08:48:13;;;;;;;;;;;;;;;;;;5043654;28;19960;-83
2022/11/24 08:50:40;;;;;;;;;;;;;;;;;;5041452;28;19941;-82
2022/11/24 08:53:06;;;;;;;;;;;;;;;;;;5055483;28;19971;-82
2022/11/24 08:55:32;;;;;;;;;;;;;;;;;;5076827;28;19939;-83
2022/11/24 08:57:59;;;;;;;;;;;;;;;;;;5040616;28;19966;-82
2022/11/24 09:00:25;;;;;;;;;;;;;;;;;;5074062;28;20354;-83
2022/11/24 09:02:51;;;;;;;;;;;;;;;;;;5057742;28;19948;-83
2022/11/24 09:05:17;;;;;;;;;;;;;;;;;;5068152;28;19912;-82
2022/11/24 09:07:43;;;;;;;;;;;;;;;;;;5070086;28;19970;-83
2022/11/24 09:10:09;;;;;;;;;;;;;;;;;;5082308;28;19960;-82
2022/11/24 09:12:36;;;;;;;;;;;;;;;;;;5055777;28;19948;-82
2022/11/24 09:15:02;;;;;;;;;;;;;;;;;;5084070;28;20334;-83
2022/11/24 09:17:28;;;;;;;;;;;;;;;;;;5058882;28;19952;-84
2022/11/24 09:19:54;;;;;;;;;;;;;;;;;;5060516;28;19967;-83
2022/11/24 09:22:20;;;;;;;;;;;;;;;;;;5076884;28;20010;-82
2022/11/24 09:24:46;;;;;;;;;;;;;;;;;;5061079;28;19917;-83
2022/11/24 09:27:13;;;;;;;;;;;;;;;;;;5071179;28;19951;-83
2022/11/24 09:29:39;;;;;;;;;;;;;;;;;;5056996;28;19971;-83
2022/11/24 09:32:05;;;;;;;;;;;;;;;;;;5035269;28;20420;-83
2022/11/24 09:34:31;;;;;;;;;;;;;;;;;;5067602;28;19959;-83
2022/11/24 09:36:57;;;;;;;;;;;;;;;;;;5045308;28;19948;-84
2022/11/24 09:39:24;;;;;;;;;;;;;;;;;;5046927;28;19948;-85
2022/11/24 09:41:50;;;;;;;;;;;;;;;;;;5074837;28;19963;-84
2022/11/24 09:44:17;;;;;;;;;;;;;;;;;;5066221;28;20859;-84
2022/11/24 09:46:43;;;;;;;;;;;;;;;;;;5048454;28;19948;-83
2022/11/24 09:49:09;;;;;;;;;;;;;;;;;;5064874;28;19940;-84
2022/11/24 09:51:35;;;;;;;;;;;;;;;;;;5035075;28;19913;-84
2022/11/24 09:54:02;;;;;;;;;;;;;;;;;;5047748;28;20281;-83
2022/11/24 09:56:28;;;;;;;;;;;;;;;;;;5056527;28;19944;-84
2022/11/24 09:58:54;;;;;;;;;;;;;;;;;;5027806;28;19959;-83
2022/11/24 10:01:20;;;;;;;;;;;;;;;;;;5033264;28;19975;-84
2022/11/24 10:03:46;;;;;;;;;;;;;;;;;;5033875;28;19963;-84
2022/11/24 10:06:13;;;;;;;;;;;;;;;;;;5034458;28;19915;-84
2022/11/24 10:08:39;;;;;;;;;;;;;;;;;;5064134;28;19960;-84
2022/11/24 10:11:05;;;;;;;;;;;;;;;;;;5045654;28;19948;-84
2022/11/24 10:13:31;;;;;;;;;;;;;;;;;;5035566;28;20371;-83
2022/11/24 10:15:57;;;;;;;;;;;;;;;;;;5048404;28;19944;-83
2022/11/24 10:18:24;;;;;;;;;;;;;;;;;;5051731;28;19916;-83
2022/11/24 10:20:50;;;;;;;;;;;;;;;;;;5051396;28;19959;-83
2022/11/24 10:23:16;;;;;;;;;;;;;;;;;;5070151;28;19963;-83
2022/11/24 10:25:42;;;;;;;;;;;;;;;;;;5064064;28;19913;-84
2022/11/24 10:28:09;;;;;;;;;;;;;;;;;;5045893;28;19958;-83
2022/11/24 10:30:35;;;;;;;;;;;;;;;;;;5080730;28;19913;-82
2022/11/24 10:33:01;;;;;;;;;;;;;;;;;;5058391;28;19947;-80
2022/11/24 10:35:27;;;;;;;;;;;;;;;;;;5047767;28;20380;-81
2022/11/24 10:37:54;;;;;;;;;;;;;;;;;;5066641;28;20431;-81
2022/11/24 10:40:20;;;;;;;;;;;;;;;;;;5031147;28;19978;-81
2022/11/24 10:42:47;;;;;;;;;;;;;;;;;;5065333;28;19952;-81
2022/11/24 10:45:13;;;;;;;;;;;;;;;;;;5033764;28;20338;-81
2022/11/24 10:47:40;;;;;;;;;;;;;;;;;;5046200;28;19948;-83
2022/11/24 10:50:06;;;;;;;;;;;;;;;;;;5051732;28;19916;-83
2022/11/24 10:52:32;;;;;;;;;;;;;;;;;;5062855;28;19955;-83
2022/11/24 10:54:58;;;;;;;;;;;;;;;;;;5047335;28;19940;-83
2022/11/24 10:57:25;;;;;;;;;;;;;;;;;;5063472;28;19986;-83
2022/11/24 10:59:51;;;;;;;;;;;;;;;;;;5043812;28;19971;-82
2022/11/24 11:02:17;;;;;;;;;;;;;;;;;;5059493;28;19962;-83
2022/11/24 11:04:43;;;;;;;;;;;;;;;;;;5076283;28;19935;-83
2022/11/24 11:07:09;;;;;;;;;;;;;;;;;;5054973;28;19974;-83
2022/11/24 11:09:35;;;;;;;;;;;;;;;;;;5056933;28;20410;-83
2022/11/24 11:12:02;;;;;;;;;;;;;;;;;;5076309;28;19947;-83
2022/11/24 11:14:28;;;;;;;;;;;;;;;;;;5075174;28;20007;-84
2022/11/24 11:16:54;;;;;;;;;;;;;;;;;;5026798;28;20346;-82
2022/11/24 11:19:22;;;;;;;;;;;;;;;;;;5061686;28;22807;-84
2022/11/24 11:21:48;;;;;;;;;;;;;;;;;;5055645;28;19963;-82
2022/11/24 11:24:15;;;;;;;;;;;;;;;;;;5058286;28;19958;-79
2022/11/24 11:26:41;;;;;;;;;;;;;;;;;;5074234;28;19960;-78
2022/11/24 11:29:07;;;;;;;;;;;;;;;;;;5059636;28;19963;-80
2022/11/24 11:31:33;;;;;;;;;;;;;;;;;;5065205;28;19939;-79
2022/11/24 11:34:00;;;;;;;;;;;;;;;;;;5061161;28;19947;-78
2022/11/24 11:36:26;;;;;;;;;;;;;;;;;;5065483;28;20009;-78
2022/11/24 11:38:52;;;;;;;;;;;;;;;;;;5049423;28;19952;-79
2022/11/24 11:41:19;;;;;;;;;;;;;;;;;;5049142;28;20274;-75
2022/11/24 11:43:45;;;;;;;;;;;;;;;;;;5071903;28;20536;-78
2022/11/24 11:46:11;;;;;;;;;;;;;;;;;;5080349;28;19909;-78
2022/11/24 11:48:37;;;;;;;;;;;;;;;;;;5065339;28;19971;-80
2022/11/24 11:51:03;;;;;;;;;;;;;;;;;;5065012;28;19944;-79
2022/11/24 11:53:30;;;;;;;;;;;;;;;;;;5082097;28;19948;-79
2022/11/24 11:55:56;;;;;;;;;;;;;;;;;;5050877;28;19947;-80
2022/11/24 11:58:22;;;;;;;;;;;;;;;;;;5064281;28;19959;-79
2022/11/24 12:00:48;;;;;;;;;;;;;;;;;;5061862;28;19955;-79
2022/11/24 12:03:14;;;;;;;;;;;;;;;;;;5065297;28;19949;-79
2022/11/24 12:05:41;;;;;;;;;;;;;;;;;;5040505;28;19962;-79
2022/11/24 12:08:07;;;;;;;;;;;;;;;;;;5060905;28;19952;-79
2022/11/24 12:10:33;;;;;;;;;;;;;;;;;;5030385;28;19991;-79
2022/11/24 12:12:59;;;;;;;;;;;;;;;;;;5065101;28;19951;-78
2022/11/24 12:15:26;;;;;;;;;;;;;;;;;;5046727;28;19967;-79
2022/11/24 12:17:52;;;;;;;;;;;;;;;;;;5064345;28;19952;-79
2022/11/24 12:20:18;;;;;;;;;;;;;;;;;;5054538;28;20381;-80
2022/11/24 12:22:44;;;;;;;;;;;;;;;;;;5066580;28;19958;-80
2022/11/24 12:25:10;;;;;;;;;;;;;;;;;;5062159;28;19970;-80
2022/11/24 12:27:37;;;;;;;;;;;;;;;;;;5064132;28;19963;-80
2022/11/24 12:30:03;;;;;;;;;;;;;;;;;;5051442;28;19944;-80
2022/11/24 12:32:29;;;;;;;;;;;;;;;;;;5062793;28;19956;-80
2022/11/24 12:34:55;;;;;;;;;;;;;;;;;;5071983;28;19948;-79
2022/11/24 12:37:21;;;;;;;;;;;;;;;;;;5066124;28;20289;-79
2022/11/24 12:39:48;;;;;;;;;;;;;;;;;;5069748;28;19924;-80
2022/11/24 12:42:14;;;;;;;;;;;;;;;;;;5071630;28;19948;-79
2022/11/24 12:44:40;;;;;;;;;;;;;;;;;;5070448;28;20010;-80
2022/11/24 12:47:06;;;;;;;;;;;;;;;;;;5065816;28;19948;-77
2022/11/24 12:49:32;;;;;;;;;;;;;;;;;;5078955;28;19952;-79
2022/11/24 12:51:59;;;;;;;;;;;;;;;;;;5077325;28;19951;-79
2022/11/24 12:54:25;;;;;;;;;;;;;;;;;;5069934;28;19955;-80
2022/11/24 12:56:51;;;;;;;;;;;;;;;;;;5071681;28;19958;-80
2022/11/24 12:59:17;;;;;;;;;;;;;;;;;;5071643;28;19921;-80
2022/11/24 13:01:43;;;;;;;;;;;;;;;;;;5065211;28;19908;-80
2022/11/24 13:04:10;;;;;;;;;;;;;;;;;;5051599;28;19952;-79
2022/11/24 13:06:36;;;;;;;;;;;;;;;;;;5064400;28;19944;-79
2022/11/24 13:09:02;;;;;;;;;;;;;;;;;;5068132;28;20011;-80
2022/11/24 13:11:28;;;;;;;;;;;;;;;;;;5066364;28;20383;-80
2022/11/24 13:13:54;;;;;;;;;;;;;;;;;;5045918;28;19971;-80
2022/11/24 13:16:20;;;;;;;;;;;;;;;;;;5071065;28;19952;-80
2022/11/24 13:18:47;;;;;;;;;;;;;;;;;;5044073;28;19962;-78
2022/11/24 13:21:13;;;;;;;;;;;;;;;;;;5063070;28;20012;-80
2022/11/24 13:23:39;;;;;;;;;;;;;;;;;;5058955;28;20342;-80
2022/11/24 13:26:05;;;;;;;;;;;;;;;;;;5060711;28;19956;-79
2022/11/24 13:28:32;;;;;;;;;;;;;;;;;;5086395;28;19908;-83
2022/11/24 13:30:58;;;;;;;;;;;;;;;;;;5051231;28;19979;-79
2022/11/24 13:33:27;;;;;;;;;;;;;;;;;;5063222;28;20332;-80
2022/11/24 13:35:53;;;;;;;;;;;;;;;;;;5043484;28;19982;-84
2022/11/24 13:38:22;;;;;;;;;;;;;;;;;;5029032;28;20299;-82
2022/11/24 13:40:48;;;;;;;;;;;;;;;;;;5056529;28;19952;-81
2022/11/24 13:43:15;;;;;;;;;;;;;;;;;;5065872;28;20412;-80
2022/11/24 13:45:42;;;;;;;;;;;;;;;;;;5062871;28;19950;-80
2022/11/24 13:48:08;;;;;;;;;;;;;;;;;;5066695;28;19955;-80
2022/11/24 13:50:34;;;;;;;;;;;;;;;;;;5069105;28;19947;-80
2022/11/24 13:53:00;;;;;;;;;;;;;;;;;;5048899;28;19963;-80
2022/11/24 13:55:26;;;;;;;;;;;;;;;;;;5059598;28;19955;-80
2022/11/24 13:57:53;;;;;;;;;;;;;;;;;;5073649;28;19966;-80
2022/11/24 14:00:19;;;;;;;;;;;;;;;;;;5054511;28;19948;-80
2022/11/24 14:02:45;;;;;;;;;;;;;;;;;;5064693;28;19964;-80
2022/11/24 14:05:11;;;;;;;;;;;;;;;;;;5058930;28;20433;-81
2022/11/24 14:07:37;;;;;;;;;;;;;;;;;;5068916;28;19916;-81
2022/11/24 14:10:04;;;;;;;;;;;;;;;;;;5047548;28;19951;-80
2022/11/24 14:12:32;;;;;;;;;;;;;;;;;;5064317;28;20029;-80
2022/11/24 14:14:58;;;;;;;;;;;;;;;;;;5059645;28;20356;-79
2022/11/24 14:17:26;;;;;;;;;;;;;;;;;;5051428;28;20356;-79
2022/11/24 14:19:52;;;;;;;;;;;;;;;;;;5064155;28;20502;-80
2022/11/24 14:22:19;;;;;;;;;;;;;;;;;;5031518;28;19919;-80
2022/11/24 14:24:45;;;;;;;;;;;;;;;;;;5066396;28;19919;-82
2022/11/24 14:27:11;;;;;;;;;;;;;;;;;;5064733;28;19958;-79
2022/11/24 14:29:37;;;;;;;;;;;;;;;;;;5062428;28;19956;-79
2022/11/24 14:32:04;;;;;;;;;;;;;;;;;;5062532;28;19952;-79
2022/11/24 14:34:30;;;;;;;;;;;;;;;;;;5077051;28;19944;-79
2022/11/24 14:36:56;;;;;;;;;;;;;;;;;;5067945;28;19955;-79
2022/11/24 14:39:25;;;;;;;;;;;;;;;;;;5054620;28;19929;-80
2022/11/24 14:41:52;;;;;;;;;;;;;;;;;;5067153;28;19985;-80
2022/11/24 14:44:18;;;;;;;;;;;;;;;;;;5071174;28;19925;-80
2022/11/24 14:46:44;;;;;;;;;;;;;;;;;;5066227;28;19954;-80
2022/11/24 14:49:11;;;;;;;;;;;;;;;;;;5063116;28;19951;-80
2022/11/24 14:51:37;;;;;;;;;;;;;;;;;;5046055;28;20356;-80
2022/11/24 14:54:03;;;;;;;;;;;;;;;;;;5043923;28;19944;-80
2022/11/24 14:56:29;;;;;;;;;;;;;;;;;;5061536;28;19987;-79
2022/11/24 14:58:56;;;;;;;;;;;;;;;;;;5063528;28;19982;-80
2022/11/24 15:01:22;;;;;;;;;;;;;;;;;;5066581;28;19944;-80
2022/11/24 15:03:48;;;;;;;;;;;;;;;;;;5047194;28;19959;-80
2022/11/24 15:06:14;;;;;;;;;;;;;;;;;;5073910;28;19951;-80
2022/11/24 15:08:40;;;;;;;;;;;;;;;;;;5059117;28;19948;-80
2022/11/24 15:11:06;;;;;;;;;;;;;;;;;;5056978;28;20398;-80
2022/11/24 15:13:36;;;;;;;;;;;;;;;;;;5058416;28;19931;-79
2022/11/24 15:16:02;;;;;;;;;;;;;;;;;;5044875;28;19954;-79
2022/11/24 15:18:28;;;;;;;;;;;;;;;;;;5046298;28;19948;-79
2022/11/24 15:20:54;;;;;;;;;;;;;;;;;;5051792;28;19968;-79
2022/11/24 15:23:21;;;;;;;;;;;;;;;;;;5054520;28;20055;-79
2022/11/24 15:25:48;;;;;;;;;;;;;;;;;;5062110;28;20451;-79
2022/11/24 15:28:14;;;;;;;;;;;;;;;;;;5055258;28;19944;-79
2022/11/24 15:30:40;;;;;;;;;;;;;;;;;;5063577;28;20378;-79
2022/11/24 15:33:07;;;;;;;;;;;;;;;;;;5049246;28;19913;-79
2022/11/24 15:35:33;;;;;;;;;;;;;;;;;;5050007;28;20000;-79
2022/11/24 15:37:59;;;;;;;;;;;;;;;;;;5072423;28;19948;-79
2022/11/24 15:40:25;;;;;;;;;;;;;;;;;;5066289;28;19963;-79
2022/11/24 15:42:51;;;;;;;;;;;;;;;;;;5057544;28;20380;-79
2022/11/24 15:45:18;;;;;;;;;;;;;;;;;;5061999;28;19964;-78
2022/11/24 15:47:44;;;;;;;;;;;;;;;;;;5076729;28;19943;-80
2022/11/24 15:50:10;;;;;;;;;;;;;;;;;;5079648;28;20673;-79
2022/11/24 15:52:36;;;;;;;;;;;;;;;;;;5066498;28;19920;-79
2022/11/24 15:55:03;;;;;;;;;;;;;;;;;;5060807;28;19956;-79
2022/11/24 15:57:29;;;;;;;;;;;;;;;;;;5067426;28;19956;-80
2022/11/24 15:59:55;;;;;;;;;;;;;;;;;;5052708;28;19967;-80
2022/11/24 16:02:21;;;;;;;;;;;;;;;;;;5058036;28;19970;-80
2022/11/24 16:04:47;;;;;;;;;;;;;;;;;;5062307;28;19952;-77
2022/11/24 16:07:14;;;;;;;;;;;;;;;;;;5075805;28;19951;-79
2022/11/24 16:09:40;;;;;;;;;;;;;;;;;;5063985;28;19963;-79
2022/11/24 16:12:09;;;;;;;;;;;;;;;;;;5077422;28;19956;-79
2022/11/24 16:14:35;;;;;;;;;;;;;;;;;;5054693;28;19944;-79
2022/11/24 16:17:02;;;;;;;;;;;;;;;;;;5059001;28;19963;-79
2022/11/24 16:19:28;;;;;;;;;;;;;;;;;;5056820;28;19972;-79
2022/11/24 16:21:54;;;;;;;;;;;;;;;;;;5064499;28;20514;-79
2022/11/24 16:24:20;;;;;;;;;;;;;;;;;;5057815;28;19966;-79
2022/11/24 16:26:46;;;;;;;;;;;;;;;;;;5075178;28;19977;-80
2022/11/24 16:29:13;;;;;;;;;;;;;;;;;;5061308;28;19964;-80
2022/11/24 16:31:42;;;;;;;;;;;;;;;;;;5040673;28;20031;-80
2022/11/24 16:34:08;;;;;;;;;;;;;;;;;;5077538;28;19920;-80
2022/11/24 16:36:34;;;;;;;;;;;;;;;;;;5036848;28;19940;-80
2022/11/24 16:39:00;;;;;;;;;;;;;;;;;;5051784;28;19916;-80
2022/11/24 16:41:26;;;;;;;;;;;;;;;;;;5078541;28;20348;-80